createdAt,value
2017-10-13T00:02:08.230Z,84.17
2017-10-13T00:04:35.637Z,84.28
2017-10-13T00:07:03.070Z,84.48
2017-10-13T00:09:30.476Z,84.85
2017-10-13T00:11:57.901Z,84.94
2017-10-13T00:14:25.393Z,84.97
2017-10-13T00:16:52.996Z,84.72
2017-10-13T00:19:20.509Z,84.39
2017-10-13T00:21:47.928Z,84.35
2017-10-13T00:24:15.334Z,84.66
2017-10-13T00:26:42.739Z,84.66
2017-10-13T00:29:10.149Z,84.41
2017-10-13T00:31:37.570Z,84.41
2017-10-13T00:34:04.973Z,84.52
2017-10-13T00:36:32.417Z,84.72
2017-10-13T00:38:59.867Z,84.16
2017-10-13T00:41:27.289Z,84.32
2017-10-13T00:43:54.690Z,84.84
2017-10-13T00:46:22.096Z,85.00
2017-10-13T00:48:49.505Z,84.81
2017-10-13T00:51:16.919Z,85.15
2017-10-13T00:53:44.333Z,85.15
2017-10-13T00:56:11.743Z,84.95
2017-10-13T00:58:39.165Z,84.88
2017-10-13T01:01:06.578Z,84.55
2017-10-13T01:03:34.021Z,84.31
2017-10-13T01:06:01.445Z,84.80
2017-10-13T01:08:28.852Z,84.91
2017-10-13T01:10:56.276Z,84.95
2017-10-13T01:13:23.674Z,85.20
2017-10-13T01:15:51.080Z,85.10
2017-10-13T01:18:18.499Z,85.24
2017-10-13T01:20:45.911Z,85.20
2017-10-13T01:23:13.340Z,85.31
2017-10-13T01:25:40.741Z,85.33
2017-10-13T01:28:08.155Z,85.07
2017-10-13T01:30:35.591Z,85.01
2017-10-13T01:33:02.995Z,85.19
2017-10-13T01:35:30.416Z,85.32
2017-10-13T01:37:58.882Z,85.35
2017-10-13T01:40:26.294Z,85.11
2017-10-13T01:42:53.741Z,85.14
2017-10-13T01:45:21.150Z,85.32
2017-10-13T01:47:48.569Z,85.29
2017-10-13T01:50:15.994Z,85.25
2017-10-13T01:52:43.410Z,85.82
2017-10-13T01:55:10.817Z,85.67
2017-10-13T01:57:38.304Z,85.66
2017-10-13T02:00:05.707Z,85.98
2017-10-13T02:02:33.119Z,86.21
2017-10-13T02:05:00.551Z,86.16
2017-10-13T02:07:28.413Z,86.20
2017-10-13T02:09:55.872Z,86.58
2017-10-13T02:12:23.284Z,86.61
2017-10-13T02:14:50.789Z,86.50
2017-10-13T02:17:18.182Z,86.42
2017-10-13T02:19:45.596Z,86.54
2017-10-13T02:22:12.996Z,87.07
2017-10-13T02:24:40.414Z,86.92
2017-10-13T02:27:07.834Z,87.49
2017-10-13T02:29:35.241Z,87.28
2017-10-13T02:32:02.784Z,87.06
2017-10-13T02:34:30.192Z,87.19
2017-10-13T02:36:57.609Z,87.31
2017-10-13T02:39:25.032Z,87.40
2017-10-13T02:41:52.447Z,87.59
2017-10-13T02:44:19.845Z,87.66
2017-10-13T02:46:47.274Z,88.08
2017-10-13T02:49:14.777Z,87.81
2017-10-13T02:51:42.234Z,87.83
2017-10-13T02:54:09.668Z,87.82
2017-10-13T02:56:37.071Z,87.96
2017-10-13T02:59:04.487Z,87.71
2017-10-13T03:01:31.953Z,87.84
2017-10-13T03:03:59.360Z,87.64
2017-10-13T03:06:26.780Z,88.10
2017-10-13T03:08:54.186Z,88.13
2017-10-13T03:11:21.683Z,88.23
2017-10-13T03:13:49.087Z,88.30
2017-10-13T03:16:16.593Z,88.43
2017-10-13T03:18:44.061Z,88.80
2017-10-13T03:21:11.485Z,88.60
2017-10-13T03:23:38.905Z,88.77
2017-10-13T03:26:06.315Z,88.96
2017-10-13T03:28:33.738Z,88.64
2017-10-13T03:31:01.143Z,88.54
2017-10-13T03:33:29.534Z,88.86
2017-10-13T03:35:56.936Z,88.98
2017-10-13T03:38:24.432Z,89.58
2017-10-13T03:40:51.886Z,89.51
2017-10-13T03:43:19.657Z,88.89
2017-10-13T03:45:47.066Z,88.57
2017-10-13T03:48:14.468Z,88.70
2017-10-13T03:50:41.896Z,89.03
2017-10-13T03:53:09.298Z,89.35
2017-10-13T03:55:36.719Z,89.51
2017-10-13T03:58:04.164Z,89.36
2017-10-13T04:00:31.613Z,89.46
2017-10-13T04:02:59.055Z,89.15
2017-10-13T04:05:26.554Z,89.28
2017-10-13T04:07:53.977Z,89.69
2017-10-13T04:10:21.401Z,89.35
2017-10-13T04:12:49.146Z,89.32
2017-10-13T04:15:16.562Z,89.33
2017-10-13T04:17:43.964Z,89.51
2017-10-13T04:20:11.385Z,89.50
2017-10-13T04:22:38.881Z,89.52
2017-10-13T04:25:06.300Z,89.33
2017-10-13T04:27:33.706Z,89.26
2017-10-13T04:30:01.132Z,89.29
2017-10-13T04:32:28.543Z,89.65
2017-10-13T04:34:56.039Z,89.62
2017-10-13T04:37:23.723Z,89.58
2017-10-13T04:39:51.138Z,89.89
2017-10-13T04:42:18.534Z,89.72
2017-10-13T04:44:45.973Z,90.02
2017-10-13T04:47:13.361Z,89.95
2017-10-13T04:49:40.889Z,89.62
2017-10-13T04:52:08.321Z,90.06
2017-10-13T04:54:35.735Z,90.26
2017-10-13T04:57:03.159Z,90.34
2017-10-13T04:59:30.601Z,89.61
2017-10-13T05:01:58.056Z,89.71
2017-10-13T05:04:25.481Z,89.70
2017-10-13T05:06:52.997Z,89.79
2017-10-13T05:09:20.417Z,89.56
2017-10-13T05:11:47.826Z,89.95
2017-10-13T05:14:15.313Z,89.84
2017-10-13T05:16:42.732Z,89.60
2017-10-13T05:19:10.298Z,89.91
2017-10-13T05:21:37.725Z,89.50
2017-10-13T05:24:05.181Z,89.37
2017-10-13T05:26:32.634Z,88.98
2017-10-13T05:29:00.034Z,89.02
2017-10-13T05:31:27.458Z,89.18
2017-10-13T05:33:54.887Z,89.38
2017-10-13T05:36:22.344Z,89.26
2017-10-13T05:38:49.738Z,89.25
2017-10-13T05:41:17.202Z,89.52
2017-10-13T05:43:44.637Z,89.60
2017-10-13T05:46:12.050Z,89.36
2017-10-13T05:48:39.458Z,89.36
2017-10-13T05:51:06.881Z,89.38
2017-10-13T05:53:34.302Z,89.13
2017-10-13T05:56:01.754Z,89.28
2017-10-13T05:58:29.183Z,89.19
2017-10-13T06:00:56.697Z,89.54
2017-10-13T06:03:24.144Z,89.85
2017-10-13T06:05:51.558Z,89.60
2017-10-13T06:08:19.152Z,89.74
2017-10-13T06:10:46.571Z,89.94
2017-10-13T06:13:13.995Z,90.32
2017-10-13T06:15:41.410Z,90.08
2017-10-13T06:18:08.942Z,90.06
2017-10-13T06:20:36.482Z,90.06
2017-10-13T06:23:03.954Z,89.73
2017-10-13T06:25:31.379Z,89.74
2017-10-13T06:27:58.806Z,90.04
2017-10-13T06:30:26.238Z,90.25
2017-10-13T06:32:53.650Z,90.18
2017-10-13T06:35:21.208Z,90.03
2017-10-13T06:37:48.639Z,90.02
2017-10-13T06:40:16.148Z,90.12
2017-10-13T06:42:43.564Z,89.95
2017-10-13T06:45:11.279Z,90.26
2017-10-13T06:47:38.733Z,89.89
2017-10-13T06:50:06.134Z,89.92
2017-10-13T06:52:33.559Z,89.87
2017-10-13T06:55:00.975Z,89.96
2017-10-13T06:57:28.459Z,89.67
2017-10-13T06:59:55.862Z,89.15
2017-10-13T07:02:23.291Z,88.67
2017-10-13T07:04:50.784Z,88.50
2017-10-13T07:07:18.190Z,88.10
2017-10-13T07:09:45.690Z,88.04
2017-10-13T07:12:13.180Z,87.86
2017-10-13T07:14:40.674Z,87.70
2017-10-13T07:17:08.095Z,87.68
2017-10-13T07:19:35.515Z,87.84
2017-10-13T07:22:02.927Z,87.23
2017-10-13T07:24:30.336Z,87.04
2017-10-13T07:26:57.789Z,86.54
2017-10-13T07:29:25.207Z,86.84
2017-10-13T07:31:52.628Z,86.92
2017-10-13T07:34:20.108Z,86.25
2017-10-13T07:36:47.530Z,86.04
2017-10-13T07:39:14.946Z,86.75
2017-10-13T07:41:42.367Z,86.42
2017-10-13T07:44:09.800Z,85.84
2017-10-13T07:46:37.309Z,85.92
2017-10-13T07:49:04.721Z,85.58
2017-10-13T07:51:32.131Z,85.78
2017-10-13T07:53:59.586Z,84.97
2017-10-13T07:56:26.978Z,85.01
2017-10-13T07:58:54.441Z,84.11
2017-10-13T08:01:21.854Z,84.02
2017-10-13T08:03:49.273Z,83.98
2017-10-13T08:06:16.736Z,83.29
2017-10-13T08:08:44.173Z,83.27
2017-10-13T08:11:11.596Z,82.67
2017-10-13T08:13:39.122Z,83.64
2017-10-13T08:16:06.552Z,83.98
2017-10-13T08:18:43.961Z,83.21
2017-10-13T08:21:11.466Z,83.49
2017-10-13T08:23:38.902Z,82.78
2017-10-13T08:26:06.361Z,83.18
2017-10-13T08:28:33.812Z,83.31
2017-10-13T08:31:01.245Z,82.80
2017-10-13T08:33:28.703Z,82.67
2017-10-13T08:35:56.101Z,82.43
2017-10-13T08:38:23.528Z,82.08
2017-10-13T08:40:50.938Z,82.39
2017-10-13T08:43:18.377Z,82.06
2017-10-13T08:45:45.828Z,81.46
2017-10-13T08:48:13.344Z,81.45
2017-10-13T08:50:40.827Z,81.99
2017-10-13T08:53:08.266Z,81.93
2017-10-13T08:55:35.711Z,81.51
2017-10-13T08:58:03.129Z,81.75
2017-10-13T09:00:30.559Z,82.11
2017-10-13T09:02:58.023Z,80.36
2017-10-13T09:05:25.461Z,80.88
2017-10-13T09:07:52.903Z,79.98
2017-10-13T09:10:20.393Z,80.83
2017-10-13T09:12:47.964Z,81.22
2017-10-13T09:15:15.421Z,81.31
2017-10-13T09:17:42.838Z,81.05
2017-10-13T09:20:10.413Z,81.11
2017-10-13T09:22:43.428Z,81.35
2017-10-13T09:25:10.925Z,80.57
2017-10-13T09:27:38.329Z,79.85
2017-10-13T09:30:05.773Z,80.24
2017-10-13T09:32:33.225Z,79.89
2017-10-13T09:35:00.693Z,79.90
2017-10-13T09:37:28.216Z,78.82
2017-10-13T09:39:55.613Z,77.58
2017-10-13T09:42:23.071Z,77.72
2017-10-13T09:44:50.514Z,76.23
2017-10-13T09:47:18.268Z,76.55
2017-10-13T09:49:45.746Z,76.90
2017-10-13T09:52:13.172Z,76.41
2017-10-13T09:54:40.710Z,76.54
2017-10-13T09:57:08.161Z,75.81
2017-10-13T09:59:35.613Z,76.04
2017-10-13T10:02:03.271Z,76.65
2017-10-13T10:04:30.700Z,76.73
2017-10-13T10:06:58.622Z,75.69
2017-10-13T10:09:26.084Z,75.79
2017-10-13T10:11:53.555Z,74.95
2017-10-13T10:14:21.027Z,74.16
2017-10-13T10:16:48.557Z,73.50
2017-10-13T10:19:15.956Z,72.14
2017-10-13T10:21:43.400Z,70.58
2017-10-13T10:24:10.878Z,70.81
2017-10-13T10:26:38.374Z,70.55
2017-10-13T10:29:05.816Z,69.54
2017-10-13T10:31:33.303Z,69.49
2017-10-13T10:34:00.717Z,68.52
2017-10-13T10:36:38.094Z,67.64
2017-10-13T10:39:05.656Z,66.99
2017-10-13T10:41:33.071Z,66.39
2017-10-13T10:44:00.492Z,64.08
2017-10-13T10:46:27.963Z,63.20
2017-10-13T10:48:55.408Z,64.01
2017-10-13T10:51:22.818Z,64.63
2017-10-13T10:53:50.237Z,64.86
2017-10-13T10:56:17.650Z,64.83
2017-10-13T10:58:45.127Z,64.45
2017-10-13T11:01:12.552Z,63.21
2017-10-13T11:03:40.020Z,62.95
2017-10-13T11:06:07.465Z,64.41
2017-10-13T11:08:34.899Z,65.17
2017-10-13T11:11:02.302Z,64.92
2017-10-13T11:13:29.743Z,64.96
2017-10-13T11:15:57.166Z,66.18
2017-10-13T11:18:24.642Z,67.16
2017-10-13T11:20:52.148Z,67.39
2017-10-13T11:23:19.593Z,67.91
2017-10-13T11:25:47.029Z,66.09
2017-10-13T11:28:14.516Z,65.74
2017-10-13T11:30:41.978Z,64.42
2017-10-13T11:33:09.425Z,64.64
2017-10-13T11:35:37.135Z,62.33
2017-10-13T11:38:04.543Z,62.31
2017-10-13T11:40:31.993Z,62.97
2017-10-13T11:42:59.458Z,62.59
2017-10-13T11:45:26.966Z,63.46
2017-10-13T11:47:54.399Z,63.72
2017-10-13T11:50:21.806Z,63.78
2017-10-13T11:52:49.224Z,63.27
2017-10-13T11:55:16.645Z,62.64
2017-10-13T11:57:44.051Z,63.76
2017-10-13T12:00:11.519Z,63.84
2017-10-13T12:02:39.014Z,65.07
2017-10-13T12:05:06.441Z,65.01
2017-10-13T12:07:33.921Z,65.22
2017-10-13T12:10:01.421Z,65.70
2017-10-13T12:12:28.904Z,66.16
2017-10-13T12:14:56.336Z,66.54
2017-10-13T12:17:23.798Z,65.99
2017-10-13T12:19:51.303Z,66.18
2017-10-13T12:22:18.755Z,67.62
2017-10-13T12:24:46.156Z,67.48
2017-10-13T12:27:13.594Z,68.04
2017-10-13T12:29:41.644Z,68.75
2017-10-13T12:32:09.045Z,69.32
2017-10-13T12:34:36.469Z,69.31
2017-10-13T12:37:03.897Z,69.47
2017-10-13T12:39:31.355Z,70.20
2017-10-13T12:41:58.922Z,69.89
2017-10-13T12:44:26.351Z,70.25
2017-10-13T12:46:53.854Z,69.97
2017-10-13T12:49:21.290Z,70.15
2017-10-13T12:51:48.944Z,70.28
2017-10-13T12:54:16.487Z,70.02
2017-10-13T12:56:44.274Z,69.58
2017-10-13T12:59:11.760Z,69.03
2017-10-13T13:01:39.233Z,69.92
2017-10-13T13:04:06.762Z,69.42
2017-10-13T13:06:34.173Z,69.36
2017-10-13T13:09:01.616Z,69.14
2017-10-13T13:11:29.065Z,69.43
2017-10-13T13:13:56.543Z,70.19
2017-10-13T13:16:23.958Z,71.54
2017-10-13T13:18:51.365Z,72.19
2017-10-13T13:21:18.810Z,73.03
2017-10-13T13:23:46.253Z,73.37
2017-10-13T13:26:13.713Z,72.93
2017-10-13T13:28:41.206Z,72.96
2017-10-13T13:31:08.713Z,73.21
2017-10-13T13:33:36.168Z,73.46
2017-10-13T13:36:03.586Z,73.54
2017-10-13T13:38:31.080Z,73.70
2017-10-13T13:40:58.504Z,73.03
2017-10-13T13:43:25.979Z,73.32
2017-10-13T13:45:53.386Z,73.29
2017-10-13T13:48:20.821Z,73.25
2017-10-13T13:50:48.214Z,72.97
2017-10-13T13:53:15.747Z,72.86
2017-10-13T13:55:43.158Z,72.82
2017-10-13T13:58:10.604Z,72.32
2017-10-13T14:00:38.035Z,72.71
2017-10-13T14:03:05.458Z,72.95
2017-10-13T14:05:32.917Z,73.19
2017-10-13T14:08:00.361Z,74.38
2017-10-13T14:10:27.809Z,73.63
2017-10-13T14:12:55.366Z,73.75
2017-10-13T14:15:23.173Z,73.25
2017-10-13T14:17:50.606Z,73.60
2017-10-13T14:20:18.015Z,73.94
2017-10-13T14:22:45.521Z,73.24
2017-10-13T14:25:12.943Z,72.73
2017-10-13T14:27:40.354Z,72.89
2017-10-13T14:30:07.820Z,73.08
2017-10-13T14:32:35.234Z,73.11
2017-10-13T14:35:02.640Z,73.65
2017-10-13T14:37:30.073Z,72.82
2017-10-13T14:39:57.505Z,72.79
2017-10-13T14:42:24.963Z,72.87
2017-10-13T14:44:52.428Z,72.93
2017-10-13T14:47:19.826Z,73.12
2017-10-13T14:49:47.295Z,73.57
2017-10-13T14:52:14.707Z,73.59
2017-10-13T14:54:42.202Z,73.68
2017-10-13T14:57:09.616Z,73.54
2017-10-13T14:59:37.158Z,74.04
2017-10-13T15:02:04.571Z,74.42
2017-10-13T15:04:32.003Z,74.50
2017-10-13T15:06:59.448Z,74.20
2017-10-13T15:09:26.881Z,74.16
2017-10-13T15:11:54.302Z,74.49
2017-10-13T15:14:21.716Z,74.38
2017-10-13T15:16:49.126Z,74.12
2017-10-13T15:19:16.575Z,74.41
2017-10-13T15:21:43.990Z,74.69
2017-10-13T15:24:11.455Z,74.83
2017-10-13T15:26:38.871Z,74.76
2017-10-13T15:29:11.995Z,75.16
2017-10-13T15:31:45.015Z,75.08
2017-10-13T15:34:18.093Z,75.28
2017-10-13T15:36:45.541Z,75.05
2017-10-13T15:39:18.499Z,75.54
2017-10-13T15:41:51.423Z,75.54
2017-10-13T15:44:24.826Z,75.53
2017-10-13T15:46:58.013Z,75.80
2017-10-13T15:49:30.934Z,75.68
2017-10-13T15:52:04.056Z,75.64
2017-10-13T15:54:31.517Z,76.04
2017-10-13T15:56:58.925Z,75.70
2017-10-13T15:59:26.369Z,74.99
2017-10-13T16:01:53.796Z,75.30
2017-10-13T16:04:21.223Z,75.10
2017-10-13T16:06:48.633Z,74.84
2017-10-13T16:09:16.045Z,74.49
2017-10-13T16:11:43.477Z,74.89
2017-10-13T16:14:10.894Z,75.09
2017-10-13T16:16:38.353Z,75.42
2017-10-13T16:19:05.757Z,75.59
2017-10-13T16:21:33.152Z,76.00
2017-10-13T16:24:00.626Z,75.94
2017-10-13T16:26:28.072Z,76.12
2017-10-13T16:28:55.465Z,76.43
2017-10-13T16:31:22.897Z,76.33
2017-10-13T16:33:50.313Z,76.14
2017-10-13T16:36:18.014Z,76.50
2017-10-13T16:38:45.437Z,76.41
2017-10-13T16:41:12.880Z,76.42
2017-10-13T16:43:40.375Z,76.44
2017-10-13T16:46:07.831Z,76.62
2017-10-13T16:48:35.254Z,76.68
2017-10-13T16:51:02.664Z,77.50
2017-10-13T16:53:30.387Z,77.37
2017-10-13T16:55:57.795Z,78.14
2017-10-13T16:58:25.195Z,78.30
2017-10-13T17:00:52.630Z,78.39
2017-10-13T17:03:20.049Z,78.49
2017-10-13T17:05:47.483Z,78.97
2017-10-13T17:08:14.918Z,78.82
2017-10-13T17:10:42.356Z,78.91
2017-10-13T17:13:09.765Z,79.09
2017-10-13T17:15:37.175Z,78.85
2017-10-13T17:18:04.589Z,79.27
2017-10-13T17:20:31.997Z,79.42
2017-10-13T17:22:59.433Z,79.32
2017-10-13T17:25:26.849Z,79.47
2017-10-13T17:27:54.342Z,79.54
2017-10-13T17:30:21.769Z,79.72
2017-10-13T17:32:49.540Z,79.85
2017-10-13T17:35:16.978Z,79.95
2017-10-13T17:37:44.392Z,80.06
2017-10-13T17:40:11.811Z,79.62
2017-10-13T17:42:39.249Z,79.79
2017-10-13T17:45:06.681Z,79.72
2017-10-13T17:47:34.158Z,79.65
2017-10-13T17:50:01.569Z,79.73
2017-10-13T17:52:28.988Z,79.58
2017-10-13T17:54:56.414Z,79.73
2017-10-13T17:57:23.827Z,79.38
2017-10-13T17:59:51.244Z,79.45
2017-10-13T18:02:18.823Z,79.45
2017-10-13T18:04:46.283Z,79.45
2017-10-13T18:07:13.697Z,79.75
2017-10-13T18:09:41.129Z,79.76
2017-10-13T18:12:08.539Z,80.00
2017-10-13T18:14:36.022Z,80.24
2017-10-13T18:17:03.672Z,80.41
2017-10-13T18:19:31.196Z,80.40
2017-10-13T18:21:58.606Z,80.31
2017-10-13T18:24:26.496Z,79.91
2017-10-13T18:26:53.940Z,79.92
2017-10-13T18:29:21.555Z,79.58
2017-10-13T18:31:49.016Z,79.55
2017-10-13T18:34:16.434Z,79.43
2017-10-13T18:36:43.854Z,79.30
2017-10-13T18:39:11.246Z,79.34
2017-10-13T18:41:38.646Z,79.32
2017-10-13T18:44:06.092Z,79.16
2017-10-13T18:46:34.235Z,79.28
2017-10-13T18:49:01.652Z,79.26
2017-10-13T18:51:29.119Z,79.16
2017-10-13T18:53:56.527Z,79.02
2017-10-13T18:56:23.931Z,79.13
2017-10-13T18:58:51.348Z,79.18
2017-10-13T19:01:18.757Z,78.86
2017-10-13T19:03:46.159Z,78.91
2017-10-13T19:06:13.666Z,78.95
2017-10-13T19:08:41.085Z,78.91
2017-10-13T19:11:08.508Z,78.68
2017-10-13T19:13:35.924Z,77.79
2017-10-13T19:16:03.333Z,77.18
2017-10-13T19:18:30.760Z,77.24
2017-10-13T19:20:58.199Z,77.12
2017-10-13T19:23:25.612Z,77.04
2017-10-13T19:25:53.040Z,77.02
2017-10-13T19:28:20.473Z,76.74
2017-10-13T19:30:47.892Z,76.65
2017-10-13T19:33:15.381Z,76.10
2017-10-13T19:35:42.814Z,76.21
2017-10-13T19:38:10.216Z,76.14
2017-10-13T19:40:37.641Z,76.84
2017-10-13T19:43:05.050Z,76.84
2017-10-13T19:45:32.484Z,76.53
2017-10-13T19:47:59.890Z,76.41
2017-10-13T19:50:27.337Z,76.72
2017-10-13T19:52:54.747Z,76.87
2017-10-13T19:55:22.159Z,77.02
2017-10-13T19:57:49.567Z,77.27
2017-10-13T20:00:17.003Z,77.40
2017-10-13T20:02:44.426Z,77.27
2017-10-13T20:05:11.894Z,77.50
2017-10-13T20:07:39.325Z,77.95
2017-10-13T20:10:06.758Z,78.06
2017-10-13T20:12:34.178Z,78.17
2017-10-13T20:15:01.581Z,78.19
2017-10-13T20:17:29.025Z,78.15
2017-10-13T20:19:56.481Z,78.75
2017-10-13T20:22:23.894Z,79.03
2017-10-13T20:24:51.335Z,79.11
2017-10-13T20:27:18.765Z,79.17
2017-10-13T20:29:46.259Z,79.19
2017-10-13T20:32:13.665Z,79.23
2017-10-13T20:34:41.090Z,79.50
2017-10-13T20:37:08.501Z,79.71
2017-10-13T20:39:35.929Z,79.80
2017-10-13T20:42:03.362Z,79.39
2017-10-13T20:44:30.778Z,79.14
2017-10-13T20:46:58.231Z,79.26
2017-10-13T20:49:25.626Z,79.00
2017-10-13T20:51:53.030Z,79.15
2017-10-13T20:54:20.463Z,79.30
2017-10-13T20:56:47.872Z,79.23
2017-10-13T20:59:15.339Z,79.62
2017-10-13T21:01:42.769Z,79.63
2017-10-13T21:04:10.190Z,79.72
2017-10-13T21:06:37.604Z,79.44
2017-10-13T21:09:05.036Z,79.55
2017-10-13T21:11:32.453Z,79.08
2017-10-13T21:13:59.853Z,78.33
2017-10-13T21:16:27.573Z,78.27
2017-10-13T21:18:54.980Z,78.24
2017-10-13T21:21:22.401Z,78.67
2017-10-13T21:23:49.837Z,78.41
2017-10-13T21:26:17.241Z,78.14
2017-10-13T21:28:44.670Z,78.27
2017-10-13T21:31:12.100Z,78.50
2017-10-13T21:33:39.513Z,78.13
2017-10-13T21:36:06.949Z,78.45
2017-10-13T21:38:34.351Z,78.42
2017-10-13T21:41:01.761Z,78.53
2017-10-13T21:43:29.216Z,78.20
2017-10-13T21:45:56.622Z,78.25
2017-10-13T21:48:24.030Z,78.30
2017-10-13T21:50:51.455Z,77.90
2017-10-13T21:53:18.853Z,77.94
2017-10-13T21:55:46.274Z,78.38
2017-10-13T21:58:13.712Z,78.59
2017-10-13T22:00:41.127Z,78.71
2017-10-13T22:03:08.562Z,78.73
2017-10-13T22:05:35.975Z,78.47
2017-10-13T22:08:03.398Z,78.67
2017-10-13T22:10:30.806Z,78.53
2017-10-13T22:12:58.246Z,78.85
2017-10-13T22:15:25.691Z,79.08
2017-10-13T22:17:53.105Z,79.10
2017-10-13T22:20:20.592Z,79.03
2017-10-13T22:22:47.985Z,79.13
2017-10-13T22:25:15.456Z,79.03
2017-10-13T22:27:42.975Z,79.61
2017-10-13T22:30:10.390Z,79.50
2017-10-13T22:32:37.857Z,79.53
2017-10-13T22:35:05.284Z,79.71
2017-10-13T22:37:32.712Z,79.35
2017-10-13T22:40:00.119Z,79.64
2017-10-13T22:42:27.548Z,79.65
2017-10-13T22:44:55.023Z,80.00
2017-10-13T22:47:22.480Z,80.24
2017-10-13T22:49:49.918Z,80.69
2017-10-13T22:52:17.751Z,80.63
2017-10-13T22:54:45.171Z,80.93
2017-10-13T22:57:12.594Z,80.88
2017-10-13T22:59:40.025Z,80.99
2017-10-13T23:02:07.453Z,81.46
2017-10-13T23:04:34.991Z,82.01
2017-10-13T23:07:02.401Z,82.07
2017-10-13T23:09:30.201Z,81.86
2017-10-13T23:11:57.621Z,82.08
2017-10-13T23:14:25.050Z,82.25
2017-10-13T23:16:52.557Z,82.18
2017-10-13T23:19:19.964Z,82.35
2017-10-13T23:21:47.383Z,81.94
2017-10-13T23:24:14.826Z,81.76
2017-10-13T23:26:42.258Z,82.22
2017-10-13T23:29:09.691Z,82.47
2017-10-13T23:31:37.140Z,82.67
2017-10-13T23:34:10.011Z,82.73
2017-10-13T23:36:37.451Z,82.74
2017-10-13T23:39:04.863Z,82.84
2017-10-13T23:41:32.272Z,82.95
2017-10-13T23:43:59.699Z,82.59
2017-10-13T23:46:27.158Z,82.70
2017-10-13T23:48:54.565Z,82.46
2017-10-13T23:51:21.982Z,82.35
2017-10-13T23:53:49.422Z,82.40
2017-10-13T23:56:16.850Z,82.44
2017-10-13T23:58:44.273Z,82.61
